Time;durP1;ratioP1;P1;durP2;ratioP2;P2;SDS_P1;SDS_P2;PMS_P1;PMS_P2;Temp;Humidity;BMP_temperature;BMP_pressure;BME280_temperature;BME280_humidity;BME280_pressure;Samples;Min_cycle;Max_cycle;Signal;HPM_P1;HPM_P2
2021/07/26 00:01:16;;;;;;;6.90;4.82;;;17.90;99.90;;;;;;5016282;28;20514;-91
2021/07/26 00:03:43;;;;;;;6.70;5.32;;;17.90;99.90;;;;;;5016490;28;20029;-90
2021/07/26 00:06:16;;;;;;;9.45;5.65;;;17.90;99.90;;;;;;5016539;28;20040;-89
2021/07/26 00:08:41;;;;;;;8.98;5.72;;;17.90;99.90;;;;;;5016694;28;20037;-91
2021/07/26 00:11:09;;;;;;;9.23;6.15;;;17.90;99.90;;;;;;5016073;28;20120;-90
2021/07/26 00:13:36;;;;;;;8.55;6.05;;;17.90;99.90;;;;;;5016268;28;20033;-90
2021/07/26 00:16:03;;;;;;;8.88;5.55;;;17.90;99.90;;;;;;5032566;28;20030;-91
2021/07/26 00:18:29;;;;;;;6.22;4.75;;;17.90;99.90;;;;;;5017834;28;20029;-90
2021/07/26 00:20:57;;;;;;;8.35;5.68;;;17.80;99.90;;;;;;5019745;28;20033;-90
2021/07/26 00:23:23;;;;;;;9.60;5.78;;;17.80;99.90;;;;;;5015962;28;20029;-90
2021/07/26 00:25:50;;;;;;;7.88;5.72;;;17.70;99.90;;;;;;5016049;28;20026;-90
2021/07/26 00:28:16;;;;;;;8.25;5.25;;;17.60;99.90;;;;;;5015888;28;20026;-90
2021/07/26 00:30:42;;;;;;;7.68;5.75;;;17.60;99.90;;;;;;5015757;28;20029;-90
2021/07/26 00:34:20;;;;;;;7.90;5.63;;;17.60;99.90;;;;;;5015625;28;20044;-90
2021/07/26 00:36:46;;;;;;;9.20;5.32;;;17.50;99.90;;;;;;5024172;28;20044;-90
2021/07/26 00:39:14;;;;;;;8.43;5.85;;;17.50;99.90;;;;;;5016130;28;20392;-90
2021/07/26 00:41:41;;;;;;;7.28;5.40;;;17.50;99.90;;;;;;5015360;28;20551;-90
2021/07/26 00:44:07;;;;;;;9.68;6.15;;;17.40;99.90;;;;;;5015325;28;20539;-90
2021/07/26 00:46:34;;;;;;;7.72;5.70;;;17.40;99.90;;;;;;5015392;28;20498;-90
2021/07/26 00:49:06;;;;;;;9.38;5.40;;;17.30;99.90;;;;;;5015111;28;20029;-91
2021/07/26 00:51:33;;;;;;;8.68;6.35;;;17.30;99.90;;;;;;5031776;28;20025;-89
2021/07/26 00:53:59;;;;;;;7.35;5.15;;;17.20;99.90;;;;;;5017382;28;20025;-91
2021/07/26 00:56:26;;;;;;;7.72;5.47;;;17.10;99.90;;;;;;5030196;28;20059;-91
2021/07/26 00:58:52;;;;;;;7.63;5.72;;;17.00;99.90;;;;;;5045472;28;20061;-90
2021/07/26 01:01:18;;;;;;;7.72;5.65;;;17.00;99.90;;;;;;5016817;28;20068;-91
2021/07/26 01:03:44;;;;;;;8.75;5.75;;;16.90;99.90;;;;;;5000787;28;20034;-91
2021/07/26 01:06:12;;;;;;;9.68;6.28;;;16.90;99.90;;;;;;5013659;28;20042;-91
2021/07/26 01:08:38;;;;;;;9.30;6.25;;;16.90;99.90;;;;;;5015104;28;20029;-91
2021/07/26 01:11:05;;;;;;;8.38;6.50;;;16.90;99.90;;;;;;5014658;28;20065;-91
2021/07/26 01:13:32;;;;;;;9.93;6.55;;;16.90;99.90;;;;;;5013945;28;20080;-91
2021/07/26 01:15:58;;;;;;;7.88;6.40;;;17.00;99.90;;;;;;5013139;28;20060;-91
2021/07/26 01:18:24;;;;;;;9.15;6.00;;;17.00;99.90;;;;;;5013890;28;20113;-92
2021/07/26 01:20:55;;;;;;;10.30;6.43;;;17.00;99.90;;;;;;5014190;28;20037;-91
2021/07/26 01:23:23;;;;;;;8.68;6.40;;;17.00;99.90;;;;;;5013828;28;20064;-91
2021/07/26 01:25:49;;;;;;;8.75;6.10;;;17.00;99.90;;;;;;5013440;28;20052;-91
2021/07/26 01:28:16;;;;;;;7.82;6.00;;;16.90;99.90;;;;;;5012905;28;20029;-91
2021/07/26 01:30:43;;;;;;;10.43;6.22;;;16.90;99.90;;;;;;5013536;28;20025;-92
2021/07/26 01:33:10;;;;;;;8.27;6.45;;;16.80;99.90;;;;;;5013682;28;20038;-90
2021/07/26 01:35:36;;;;;;;8.52;6.03;;;16.80;99.90;;;;;;5013651;28;20033;-89
2021/07/26 01:38:03;;;;;;;11.65;6.18;;;16.80;99.90;;;;;;5013904;28;20100;-90
2021/07/26 01:40:29;;;;;;;9.25;6.65;;;16.70;99.90;;;;;;5016863;28;20034;-90
2021/07/26 01:43:02;;;;;;;8.77;6.32;;;16.70;99.90;;;;;;5014138;28;20103;-91
2021/07/26 01:45:35;;;;;;;9.75;6.10;;;16.70;99.90;;;;;;5012589;28;20083;-90
2021/07/26 01:48:17;;;;;;;11.07;6.75;;;16.60;99.90;;;;;;5012227;28;20033;-91
2021/07/26 01:50:57;;;;;;;10.05;6.35;;;16.60;99.90;;;;;;5012271;28;20038;-92
2021/07/26 01:53:23;;;;;;;9.63;6.50;;;16.50;99.90;;;;;;5011991;28;20051;-92
2021/07/26 01:55:49;;;;;;;7.85;6.25;;;16.50;99.90;;;;;;5011779;28;20400;-91
2021/07/26 01:58:16;;;;;;;9.95;6.82;;;16.50;99.90;;;;;;5011970;28;20219;-92
2021/07/26 02:00:42;;;;;;;9.02;6.93;;;16.60;99.90;;;;;;5011622;28;20505;-91
2021/07/26 02:03:08;;;;;;;10.30;6.25;;;16.60;99.90;;;;;;4995726;28;20041;-92
2021/07/26 02:05:33;;;;;;;8.38;6.15;;;16.50;99.90;;;;;;4996019;28;20033;-91
2021/07/26 02:07:59;;;;;;;7.00;5.60;;;16.50;99.90;;;;;;4996116;28;20025;-91
2021/07/26 02:10:25;;;;;;;11.15;6.35;;;16.60;99.90;;;;;;5012268;28;20086;-91
2021/07/26 02:12:51;;;;;;;9.23;6.25;;;16.60;99.90;;;;;;5012160;28;20034;-91
2021/07/26 02:15:16;;;;;;;9.23;6.35;;;16.60;99.90;;;;;;4995903;28;20045;-91
2021/07/26 02:17:42;;;;;;;8.15;6.28;;;16.60;99.90;;;;;;5000027;28;20499;-91
2021/07/26 02:20:09;;;;;;;14.48;6.32;;;16.60;99.90;;;;;;5015705;28;20109;-91
2021/07/26 02:22:34;;;;;;;6.95;5.78;;;16.70;99.90;;;;;;5022652;28;20029;-91
2021/07/26 02:25:00;;;;;;;8.77;5.95;;;16.70;99.90;;;;;;4997897;28;20030;-90
2021/07/26 02:27:26;;;;;;;9.02;5.93;;;16.70;99.90;;;;;;5010648;28;20562;-90
2021/07/26 02:29:52;;;;;;;11.32;7.30;;;16.70;99.90;;;;;;5011086;28;20030;-91
2021/07/26 02:32:17;;;;;;;8.82;6.30;;;16.70;99.90;;;;;;5010653;28;20141;-91
2021/07/26 02:34:43;;;;;;;9.50;5.75;;;16.70;99.90;;;;;;5010648;28;20514;-91
2021/07/26 02:37:09;;;;;;;7.18;5.72;;;16.70;99.90;;;;;;5010466;28;20061;-90
2021/07/26 02:39:35;;;;;;;7.75;5.90;;;16.70;99.90;;;;;;5010323;28;20038;-90
2021/07/26 02:42:01;;;;;;;9.80;6.20;;;16.70;99.90;;;;;;5010211;28;20428;-90
2021/07/26 02:44:26;;;;;;;7.95;6.07;;;16.70;99.90;;;;;;5010329;28;20140;-90
2021/07/26 02:46:52;;;;;;;6.68;5.00;;;16.70;99.90;;;;;;5010479;28;20049;-90
2021/07/26 02:49:18;;;;;;;9.30;5.97;;;16.80;99.90;;;;;;5010271;28;20074;-90
2021/07/26 02:51:44;;;;;;;7.38;5.50;;;16.80;99.90;;;;;;5010367;28;20117;-90
2021/07/26 02:54:10;;;;;;;8.02;5.55;;;16.80;99.90;;;;;;5010738;28;20029;-91
2021/07/26 02:56:35;;;;;;;9.90;5.53;;;16.80;99.90;;;;;;5010367;28;20033;-90
2021/07/26 02:59:01;;;;;;;6.07;5.05;;;16.80;99.90;;;;;;5010074;28;20026;-90
2021/07/26 03:01:27;;;;;;;10.07;6.00;;;16.80;99.90;;;;;;5010062;28;20033;-90
2021/07/26 03:03:53;;;;;;;8.40;5.68;;;16.80;99.90;;;;;;5009975;28;20412;-91
2021/07/26 03:06:19;;;;;;;8.40;6.07;;;16.70;99.90;;;;;;5010180;28;20647;-89
2021/07/26 03:08:46;;;;;;;8.43;6.28;;;16.70;99.90;;;;;;5013087;28;20026;-89
2021/07/26 03:11:12;;;;;;;9.90;6.88;;;16.70;99.90;;;;;;5014016;28;20092;-90
2021/07/26 03:13:40;;;;;;;8.82;5.90;;;16.60;99.90;;;;;;5014240;28;20441;-91
2021/07/26 03:16:13;;;;;;;8.45;6.00;;;16.60;99.90;;;;;;5014975;28;20037;-91
2021/07/26 03:18:40;;;;;;;8.95;5.88;;;16.60;99.90;;;;;;5015166;28;20034;-91
2021/07/26 03:21:06;;;;;;;11.25;6.20;;;16.60;99.90;;;;;;5015244;28;20121;-91
2021/07/26 03:23:32;;;;;;;7.70;5.32;;;16.60;99.90;;;;;;5015644;28;20480;-91
2021/07/26 03:25:58;;;;;;;8.45;5.45;;;16.60;99.90;;;;;;5017213;28;20029;-91
2021/07/26 03:28:24;;;;;;;9.07;6.63;;;16.60;99.90;;;;;;5015428;28;20057;-92
2021/07/26 03:30:50;;;;;;;10.98;6.75;;;16.60;99.90;;;;;;5014383;28;20476;-92
2021/07/26 03:33:16;;;;;;;11.45;6.30;;;16.60;99.90;;;;;;5016424;28;20034;-91
2021/07/26 03:35:42;;;;;;;9.10;6.40;;;16.60;99.90;;;;;;5017798;28;20069;-91
2021/07/26 03:38:08;;;;;;;7.80;5.80;;;16.50;99.90;;;;;;5016442;28;20026;-90
2021/07/26 03:40:34;;;;;;;8.73;6.63;;;16.50;99.90;;;;;;5014720;28;20407;-91
2021/07/26 03:43:04;;;;;;;9.35;6.38;;;16.50;99.90;;;;;;5015343;28;20030;-89
2021/07/26 03:45:30;;;;;;;11.30;6.35;;;16.50;99.90;;;;;;5013232;28;20127;-90
2021/07/26 03:47:59;;;;;;;7.65;5.88;;;16.50;99.90;;;;;;5013403;28;20037;-88
2021/07/26 03:50:26;;;;;;;10.85;7.50;;;16.50;99.90;;;;;;5016564;28;20026;-91
2021/07/26 03:52:54;;;;;;;7.55;5.75;;;16.50;99.90;;;;;;5051710;28;20057;-91
2021/07/26 03:55:31;;;;;;;7.53;5.72;;;16.50;99.90;;;;;;5048687;28;20095;-91
2021/07/26 03:58:00;;;;;;;9.15;5.95;;;16.50;99.90;;;;;;5019570;28;20112;-91
2021/07/26 04:00:30;;;;;;;9.57;6.25;;;16.40;99.90;;;;;;4999920;28;20121;-91
2021/07/26 04:05:44;;;;;;;9.63;5.75;;;16.40;99.90;;;;;;5013624;28;20026;-91
2021/07/26 04:08:36;;;;;;;12.07;5.85;;;16.40;99.90;;;;;;5013329;28;20092;-91
2021/07/26 04:11:44;;;;;;;11.82;5.82;;;16.40;99.90;;;;;;5012727;28;20052;-90
2021/07/26 04:13:56;;;;;;;8.90;5.97;;;16.40;99.90;;;;;;5007922;28;20073;-91
2021/07/26 04:16:22;;;;;;;8.65;5.78;;;16.40;99.90;;;;;;5013880;28;20045;-91
2021/07/26 04:18:50;;;;;;;9.40;5.85;;;16.40;99.90;;;;;;5013039;28;20025;-91
2021/07/26 04:21:17;;;;;;;8.35;5.95;;;16.50;99.90;;;;;;5012669;28;20042;-90
2021/07/26 04:23:43;;;;;;;8.95;5.85;;;16.50;99.90;;;;;;5028716;28;20383;-90
2021/07/26 04:26:09;;;;;;;9.43;6.13;;;16.60;99.90;;;;;;5032953;28;20029;-90
2021/07/26 04:28:36;;;;;;;11.00;7.15;;;16.60;99.90;;;;;;5032397;28;20052;-90
2021/07/26 04:31:03;;;;;;;9.50;6.47;;;16.50;99.90;;;;;;5015850;28;20026;-90
2021/07/26 04:33:29;;;;;;;10.50;6.75;;;16.50;99.90;;;;;;5016463;28;20471;-91
2021/07/26 04:35:55;;;;;;;10.00;6.43;;;16.50;99.90;;;;;;5016678;28;20030;-91
2021/07/26 04:38:20;;;;;;;12.30;7.53;;;16.60;99.90;;;;;;5032803;28;20032;-91
2021/07/26 04:40:46;;;;;;;13.93;8.35;;;16.50;99.90;;;;;;5033184;28;20033;-91
2021/07/26 04:43:12;;;;;;;9.13;6.75;;;16.60;99.90;;;;;;5032787;28;20029;-91
2021/07/26 04:45:38;;;;;;;11.07;7.63;;;16.60;99.90;;;;;;5032239;28;20388;-91
2021/07/26 04:48:04;;;;;;;8.13;5.43;;;16.60;99.90;;;;;;5032243;28;20037;-91
2021/07/26 04:50:30;;;;;;;10.45;6.78;;;16.70;99.90;;;;;;5032180;28;20030;-91
2021/07/26 04:52:55;;;;;;;13.30;8.00;;;16.80;99.90;;;;;;5035093;28;20113;-91
2021/07/26 04:55:21;;;;;;;13.50;9.40;;;16.90;99.90;;;;;;5027182;28;20095;-91
2021/07/26 04:57:47;;;;;;;15.45;9.50;;;16.90;99.90;;;;;;5024355;28;20037;-90
2021/07/26 05:00:13;;;;;;;18.27;12.00;;;17.00;99.90;;;;;;5020272;28;20044;-91
2021/07/26 05:02:39;;;;;;;12.93;8.90;;;17.10;99.90;;;;;;5018044;28;20045;-92
2021/07/26 05:05:06;;;;;;;13.70;10.30;;;17.10;99.90;;;;;;5048536;28;20128;-91
2021/07/26 05:07:34;;;;;;;11.40;8.07;;;17.30;99.90;;;;;;5018209;28;20030;-90
2021/07/26 05:10:00;;;;;;;9.70;7.65;;;17.30;99.90;;;;;;5013819;28;20022;-91
2021/07/26 05:12:26;;;;;;;9.95;6.47;;;17.50;99.90;;;;;;5029639;28;20521;-91
2021/07/26 05:14:53;;;;;;;9.45;7.75;;;17.60;99.90;;;;;;5012548;28;20034;-91
2021/07/26 05:17:26;;;;;;;8.57;6.18;;;17.70;99.90;;;;;;4995649;28;20061;-91
2021/07/26 05:19:52;;;;;;;9.63;6.80;;;17.80;99.90;;;;;;4996048;28;20034;-91
2021/07/26 05:22:22;;;;;;;9.65;6.93;;;17.90;99.90;;;;;;4995697;28;20056;-91
2021/07/26 05:24:48;;;;;;;14.48;8.77;;;18.00;99.90;;;;;;4995791;28;20104;-91
2021/07/26 05:27:14;;;;;;;11.98;6.40;;;18.10;99.90;;;;;;4995304;28;20085;-90
2021/07/26 05:29:40;;;;;;;9.30;7.10;;;18.20;99.90;;;;;;4995233;28;20030;-91
2021/07/26 05:32:07;;;;;;;10.32;7.75;;;18.30;99.90;;;;;;4995774;28;20487;-92
2021/07/26 05:34:33;;;;;;;10.65;7.50;;;18.40;99.90;;;;;;4995490;28;20025;-91
2021/07/26 05:36:59;;;;;;;10.15;7.43;;;18.50;99.90;;;;;;4995777;28;20033;-90
2021/07/26 05:39:25;;;;;;;10.48;7.70;;;18.50;99.90;;;;;;5011750;28;20056;-90
2021/07/26 05:41:53;;;;;;;13.38;8.07;;;18.50;99.90;;;;;;4995402;28;20579;-91
2021/07/26 05:44:19;;;;;;;11.45;8.07;;;18.70;99.90;;;;;;4996003;28;20133;-91
2021/07/26 05:46:45;;;;;;;10.38;7.35;;;18.80;99.90;;;;;;4995031;28;20076;-91
2021/07/26 05:49:11;;;;;;;12.77;7.78;;;19.00;99.90;;;;;;4995854;28;20485;-91
2021/07/26 05:51:37;;;;;;;11.98;7.35;;;19.20;99.90;;;;;;4995261;28;20065;-91
2021/07/26 05:54:04;;;;;;;10.25;7.55;;;19.50;99.90;;;;;;4995498;28;20068;-91
2021/07/26 05:56:35;;;;;;;12.32;7.47;;;19.80;99.90;;;;;;4994723;28;20041;-91
2021/07/26 05:59:02;;;;;;;9.20;7.15;;;19.90;99.90;;;;;;4995330;28;20033;-91
2021/07/26 06:04:29;;;;;;;11.88;7.50;;;20.40;99.90;;;;;;5013231;28;20293;-92
2021/07/26 06:07:02;;;;;;;9.90;6.68;;;20.50;99.90;;;;;;4996877;28;20038;-91
2021/07/26 06:09:28;;;;;;;7.20;5.75;;;20.80;99.90;;;;;;4996830;28;20133;-91
2021/07/26 06:11:54;;;;;;;7.90;5.85;;;20.90;99.90;;;;;;4997614;28;20128;-91
2021/07/26 06:14:21;;;;;;;8.50;6.50;;;21.20;99.90;;;;;;5000818;28;20025;-91
2021/07/26 06:16:49;;;;;;;7.30;5.80;;;21.50;99.90;;;;;;5004805;28;20408;-91
2021/07/26 06:19:15;;;;;;;8.75;5.38;;;21.70;99.90;;;;;;5017087;28;20029;-92
2021/07/26 06:21:45;;;;;;;8.48;5.00;;;21.80;99.90;;;;;;5016739;28;20033;-91
2021/07/26 06:24:13;;;;;;;7.18;5.72;;;22.10;99.90;;;;;;5019693;28;20036;-91
2021/07/26 06:26:39;;;;;;;9.00;5.47;;;22.10;99.90;;;;;;5045651;28;20112;-91
2021/07/26 06:29:06;;;;;;;9.05;6.03;;;22.40;99.90;;;;;;5000962;28;20034;-90
2021/07/26 06:31:32;;;;;;;7.20;5.00;;;22.80;99.90;;;;;;5016317;28;20028;-89
2021/07/26 06:34:03;;;;;;;5.25;4.72;;;23.10;99.90;;;;;;5014543;28;20029;-90
2021/07/26 06:36:29;;;;;;;6.07;4.85;;;23.60;99.90;;;;;;5014711;28;20037;-91
2021/07/26 06:38:55;;;;;;;6.90;5.43;;;23.90;99.90;;;;;;5014183;28;20029;-89
2021/07/26 06:41:22;;;;;;;6.88;5.20;;;23.70;99.90;;;;;;5031035;28;20123;-88
2021/07/26 06:43:49;;;;;;;5.20;4.57;;;23.70;99.90;;;;;;5017553;28;20544;-87
2021/07/26 06:46:15;;;;;;;6.30;4.65;;;23.80;99.90;;;;;;4982133;28;20120;-86
2021/07/26 06:48:41;;;;;;;5.35;4.80;;;23.80;99.90;;;;;;4998037;28;20089;-87
2021/07/26 06:51:07;;;;;;;6.13;4.65;;;24.00;99.90;;;;;;5010362;28;20037;-88
2021/07/26 06:53:33;;;;;;;6.65;4.10;;;24.10;99.90;;;;;;5017028;28;20124;-88
2021/07/26 06:56:07;;;;;;;7.30;4.93;;;24.50;99.90;;;;;;5031722;28;20373;-89
2021/07/26 06:58:34;;;;;;;7.85;4.50;;;24.80;99.90;;;;;;5021155;28;20040;-90
2021/07/26 07:01:13;;;;;;;6.80;4.65;;;24.80;99.90;;;;;;5010879;28;20064;-89
2021/07/26 07:03:41;;;;;;;6.13;4.40;;;25.00;99.90;;;;;;5051815;28;20033;-89
2021/07/26 07:06:08;;;;;;;5.03;3.80;;;25.20;99.90;;;;;;5017641;28;20391;-90
2021/07/26 07:08:38;;;;;;;6.82;3.97;;;25.50;99.90;;;;;;5034021;28;20049;-91
2021/07/26 07:11:05;;;;;;;6.95;3.78;;;25.70;99.90;;;;;;5031740;28;20079;-89
2021/07/26 07:13:35;;;;;;;4.65;3.78;;;26.00;99.90;;;;;;5015640;28;20034;-90
2021/07/26 07:16:09;;;;;;;5.25;4.13;;;26.10;99.90;;;;;;5018349;28;20064;-89
2021/07/26 07:18:36;;;;;;;7.57;4.85;;;26.20;99.90;;;;;;5018034;28;20030;-90
2021/07/26 07:21:03;;;;;;;4.38;3.58;;;25.90;99.90;;;;;;5018454;28;20060;-88
2021/07/26 07:23:28;;;;;;;5.25;3.72;;;26.20;99.90;;;;;;5039482;28;20037;-89
2021/07/26 07:25:54;;;;;;;5.80;4.72;;;26.50;99.90;;;;;;5021203;28;20044;-90
2021/07/26 07:28:20;;;;;;;8.23;3.90;;;26.20;99.90;;;;;;5036176;28;20033;-89
2021/07/26 07:30:47;;;;;;;4.47;3.42;;;26.10;99.90;;;;;;5036418;28;20048;-89
2021/07/26 07:33:13;;;;;;;6.10;3.33;;;26.40;99.90;;;;;;5016239;28;20037;-88
2021/07/26 07:35:39;;;;;;;4.65;4.03;;;26.40;99.90;;;;;;5013835;28;20033;-87
2021/07/26 07:38:05;;;;;;;4.32;3.63;;;26.70;99.90;;;;;;5018431;28;20029;-87
2021/07/26 07:40:31;;;;;;;4.25;3.15;;;26.50;99.90;;;;;;5012049;28;20650;-88
2021/07/26 07:42:57;;;;;;;3.95;3.13;;;26.20;99.90;;;;;;5012466;28;20034;-89
2021/07/26 07:45:23;;;;;;;5.22;3.22;;;26.20;99.90;;;;;;5027845;28;20036;-89
2021/07/26 07:47:51;;;;;;;4.65;3.28;;;26.20;99.90;;;;;;5026659;28;20026;-89
2021/07/26 07:57:35;;;;;;;4.10;3.05;;;25.60;99.90;;;;;;5054624;22;20068;-78
2021/07/26 08:00:05;;;;;;;3.97;3.25;;;25.60;99.90;;;;;;5019650;28;20466;-80
2021/07/26 08:02:31;;;;;;;4.20;2.80;;;25.40;99.90;;;;;;5038187;28;20047;-78
2021/07/26 08:04:57;;;;;;;3.95;3.08;;;25.30;99.90;;;;;;5035266;28;20045;-79
2021/07/26 08:07:23;;;;;;;5.82;3.15;;;25.20;99.90;;;;;;5025910;28;20029;-79
2021/07/26 08:09:48;;;;;;;4.05;3.42;;;25.30;99.90;;;;;;5029104;28;20511;-79
2021/07/26 08:12:14;;;;;;;3.90;3.20;;;25.30;99.90;;;;;;5025300;28;20578;-79
2021/07/26 08:14:40;;;;;;;3.88;3.15;;;25.30;99.90;;;;;;5027029;28;20068;-79
2021/07/26 08:17:06;;;;;;;3.60;2.90;;;25.40;99.90;;;;;;5027925;28;20022;-80
2021/07/26 08:19:32;;;;;;;5.65;3.90;;;25.50;99.90;;;;;;5027229;28;20029;-80
2021/07/26 08:21:57;;;;;;;4.93;3.10;;;25.40;99.90;;;;;;5010566;28;20103;-79
2021/07/26 08:24:23;;;;;;;4.88;3.03;;;25.50;99.90;;;;;;5027321;28;20041;-78
2021/07/26 08:26:49;;;;;;;3.97;2.97;;;25.40;99.90;;;;;;5027156;28;20041;-79
2021/07/26 08:29:15;;;;;;;4.78;3.95;;;25.50;99.90;;;;;;5022808;28;20022;-78
2021/07/26 08:31:40;;;;;;;3.95;3.30;;;25.60;99.90;;;;;;5024803;28;20030;-79
2021/07/26 08:34:06;;;;;;;3.15;2.83;;;25.70;99.90;;;;;;5027114;28;20377;-79
2021/07/26 08:36:32;;;;;;;3.85;3.00;;;25.70;99.90;;;;;;5027396;28;20122;-78
2021/07/26 08:38:57;;;;;;;4.03;2.80;;;25.70;99.90;;;;;;5013463;28;20033;-79
2021/07/26 08:41:23;;;;;;;4.35;3.30;;;25.60;99.90;;;;;;5028563;28;20033;-80
2021/07/26 08:43:49;;;;;;;4.25;3.08;;;25.60;99.90;;;;;;5041476;28;20302;-79
2021/07/26 08:46:19;;;;;;;3.40;3.10;;;25.70;99.90;;;;;;5005863;28;20080;-80
2021/07/26 08:48:47;;;;;;;3.28;2.90;;;25.70;99.90;;;;;;5040345;28;20041;-80
2021/07/26 08:51:16;;;;;;;3.45;2.67;;;25.60;99.90;;;;;;5028066;28;20026;-79
2021/07/26 08:53:43;;;;;;;3.95;2.95;;;25.50;99.90;;;;;;5033102;28;20080;-79
2021/07/26 08:56:09;;;;;;;3.03;2.65;;;25.40;99.90;;;;;;5025094;28;20522;-80
2021/07/26 08:58:39;;;;;;;3.95;3.17;;;25.30;99.90;;;;;;5026977;28;20041;-79
2021/07/26 09:01:06;;;;;;;3.40;2.95;;;25.30;99.90;;;;;;5026543;28;20037;-80
2021/07/26 09:03:32;;;;;;;4.55;2.58;;;25.20;99.90;;;;;;5027034;28;20037;-81
2021/07/26 09:05:57;;;;;;;3.40;2.85;;;25.00;99.90;;;;;;5027189;28;20459;-80
2021/07/26 09:08:23;;;;;;;4.50;2.85;;;25.00;99.90;;;;;;5021504;28;20026;-80
2021/07/26 09:10:49;;;;;;;3.40;2.97;;;25.00;99.90;;;;;;5025324;28;20033;-80
2021/07/26 09:13:32;;;;;;;3.15;2.85;;;24.90;99.90;;;;;;5025083;28;20037;-80
2021/07/26 09:16:16;;;;;;;3.22;2.90;;;24.90;99.90;;;;;;5022221;28;20045;-79
2021/07/26 09:18:44;;;;;;;3.47;2.85;;;24.80;99.90;;;;;;5025383;28;20030;-79
2021/07/26 09:21:09;;;;;;;3.75;2.92;;;24.80;99.90;;;;;;5026872;28;20065;-79
2021/07/26 09:23:38;;;;;;;3.83;3.22;;;24.70;99.90;;;;;;5026350;28;20076;-78
2021/07/26 09:26:27;;;;;;;2.55;2.35;;;24.80;99.90;;;;;;5026038;28;20057;-78
2021/07/26 09:28:53;;;;;;;3.97;3.10;;;24.80;99.90;;;;;;5023291;28;20033;-79
2021/07/26 09:31:18;;;;;;;3.53;3.05;;;24.70;99.90;;;;;;5024567;28;20030;-80
2021/07/26 09:33:44;;;;;;;3.88;3.13;;;24.60;99.90;;;;;;5027223;28;20133;-80
2021/07/26 09:36:21;;;;;;;4.78;2.67;;;24.50;99.90;;;;;;5025508;28;20100;-78
2021/07/26 09:38:52;;;;;;;4.38;2.67;;;24.50;99.90;;;;;;5026736;28;20045;-79
2021/07/26 09:41:38;;;;;;;4.85;2.72;;;24.40;99.90;;;;;;5023162;28;20036;-78
2021/07/26 09:44:05;;;;;;;3.45;2.60;;;24.40;99.90;;;;;;5025239;28;20456;-78
2021/07/26 09:46:31;;;;;;;3.83;3.45;;;24.40;99.90;;;;;;5023061;28;20021;-78
2021/07/26 09:49:17;;;;;;;4.57;3.58;;;24.40;99.90;;;;;;5023489;28;20033;-79
2021/07/26 09:51:46;;;;;;;3.67;2.88;;;24.40;99.90;;;;;;5026765;28;20060;-79
2021/07/26 09:54:12;;;;;;;4.60;3.05;;;24.40;99.90;;;;;;5026784;28;20036;-78
2021/07/26 09:56:38;;;;;;;3.42;2.97;;;24.40;99.90;;;;;;5027128;28;20042;-78
2021/07/26 09:59:04;;;;;;;4.15;2.97;;;24.40;99.90;;;;;;5026651;28;20049;-78
2021/07/26 10:01:30;;;;;;;4.72;3.30;;;24.40;99.90;;;;;;5027650;28;20025;-79
2021/07/26 10:03:57;;;;;;;3.22;2.67;;;24.40;99.90;;;;;;5026879;28;20319;-79
2021/07/26 10:06:22;;;;;;;5.57;3.58;;;24.40;99.90;;;;;;5027487;28;20057;-79
2021/07/26 10:08:49;;;;;;;4.80;3.13;;;24.40;99.90;;;;;;5027055;28;20080;-78
2021/07/26 10:11:15;;;;;;;3.55;2.67;;;24.30;99.90;;;;;;5024785;28;20029;-79
2021/07/26 10:13:44;;;;;;;4.07;3.65;;;24.30;99.90;;;;;;5025684;28;20033;-79
2021/07/26 10:16:14;;;;;;;3.63;3.17;;;24.30;99.90;;;;;;5024552;28;20032;-79
2021/07/26 10:18:48;;;;;;;3.22;2.92;;;24.30;99.90;;;;;;5022698;28;20025;-78
2021/07/26 10:21:25;;;;;;;4.90;3.65;;;24.20;99.90;;;;;;5025761;28;20395;-79
2021/07/26 10:23:52;;;;;;;5.38;3.72;;;24.10;99.90;;;;;;5021297;28;20026;-80
2021/07/26 10:26:32;;;;;;;4.25;3.15;;;24.00;99.90;;;;;;5024089;28;20024;-79
2021/07/26 10:28:58;;;;;;;4.63;3.78;;;24.00;99.90;;;;;;5021472;28;20041;-79
2021/07/26 10:31:30;;;;;;;3.88;3.40;;;24.00;99.90;;;;;;5025916;28;20496;-78
2021/07/26 10:34:06;;;;;;;4.10;3.70;;;24.00;99.90;;;;;;5024867;28;20346;-79
2021/07/26 10:36:44;;;;;;;3.95;3.53;;;23.90;99.90;;;;;;5025802;28;20034;-79
2021/07/26 10:39:10;;;;;;;4.18;3.33;;;24.00;99.90;;;;;;5024659;28;20644;-79
2021/07/26 10:41:45;;;;;;;4.03;3.53;;;23.90;99.90;;;;;;5019599;28;20040;-78
2021/07/26 10:44:17;;;;;;;3.58;3.22;;;23.80;99.90;;;;;;5018511;28;20018;-78
2021/07/26 10:47:06;;;;;;;3.70;3.30;;;23.70;99.90;;;;;;5022892;28;20468;-79
2021/07/26 10:49:44;;;;;;;3.80;3.42;;;23.60;99.90;;;;;;5023696;28;20065;-77
2021/07/26 10:52:31;;;;;;;4.85;3.88;;;23.50;99.90;;;;;;5021708;28;20040;-78
2021/07/26 10:54:59;;;;;;;5.00;3.45;;;23.30;99.90;;;;;;5010969;28;20105;-78
2021/07/26 10:57:43;;;;;;;4.50;3.85;;;23.20;99.90;;;;;;5020477;28;20389;-78
2021/07/26 11:00:22;;;;;;;4.55;3.65;;;23.10;99.90;;;;;;5020606;28;20026;-78
2021/07/26 11:02:50;;;;;;;5.15;3.80;;;23.00;99.90;;;;;;5025928;28;20053;-77
2021/07/26 11:05:42;;;;;;;8.68;4.10;;;22.90;99.90;;;;;;5024921;28;20017;-78
2021/07/26 11:08:14;;;;;;;4.78;3.90;;;22.70;99.90;;;;;;5020029;28;20061;-78
2021/07/26 11:10:43;;;;;;;4.43;3.65;;;22.70;99.90;;;;;;5024908;28;20446;-78
2021/07/26 11:13:09;;;;;;;4.10;3.47;;;22.60;99.90;;;;;;5024960;28;20318;-78
2021/07/26 11:15:45;;;;;;;3.63;3.20;;;22.50;99.90;;;;;;5025032;28;20053;-79
2021/07/26 11:18:20;;;;;;;;;;;22.50;99.90;;;;;;5023295;28;20555;-79
2021/07/26 11:21:05;;;;;;;4.63;3.60;;;22.50;99.90;;;;;;5018704;28;20323;-78
2021/07/26 11:23:52;;;;;;;4.75;3.72;;;22.50;99.90;;;;;;5019926;28;20037;-79
2021/07/26 11:26:27;;;;;;;4.25;3.85;;;22.50;99.90;;;;;;5023251;28;20124;-78
2021/07/26 11:28:55;;;;;;;4.00;3.55;;;22.40;99.90;;;;;;5024006;28;20388;-78
2021/07/26 11:31:23;;;;;;;3.83;3.38;;;22.30;99.90;;;;;;5026770;28;20026;-78
2021/07/26 11:33:50;;;;;;;4.88;3.55;;;22.20;99.90;;;;;;5030681;28;20045;-78
2021/07/26 11:36:16;;;;;;;5.18;3.67;;;22.10;99.90;;;;;;5023050;28;20029;-78
2021/07/26 11:38:58;;;;;;;4.45;3.55;;;22.00;99.90;;;;;;5027669;28;20036;-77
2021/07/26 11:41:25;;;;;;;4.20;3.42;;;21.80;99.90;;;;;;5026392;28;20033;-78
2021/07/26 11:43:51;;;;;;;3.90;3.25;;;21.70;99.90;;;;;;5028259;28;20034;-78
2021/07/26 11:46:17;;;;;;;5.07;3.60;;;21.60;99.90;;;;;;5027491;28;20025;-77
2021/07/26 11:48:42;;;;;;;4.63;3.60;;;21.40;99.90;;;;;;5026658;28;20033;-78
2021/07/26 11:51:26;;;;;;;5.22;4.50;;;21.40;99.90;;;;;;5025951;28;20029;-77
2021/07/26 11:54:03;;;;;;;4.20;3.50;;;21.20;99.90;;;;;;5022289;28;20030;-78
2021/07/26 11:56:29;;;;;;;3.88;3.22;;;21.10;99.90;;;;;;5027295;28;20451;-78
2021/07/26 11:59:18;;;;;;;5.07;3.75;;;21.10;99.90;;;;;;5027304;28;20384;-78
2021/07/26 12:01:51;;;;;;;6.75;3.85;;;21.00;99.90;;;;;;5024992;28;20413;-79
2021/07/26 12:04:17;;;;;;;3.90;3.45;;;20.80;99.90;;;;;;5023841;28;20276;-78
2021/07/26 12:06:54;;;;;;;4.10;3.38;;;20.70;99.90;;;;;;5023711;28;20060;-78
2021/07/26 12:09:21;;;;;;;6.75;4.13;;;20.60;99.90;;;;;;5026582;28;20109;-78
2021/07/26 12:11:48;;;;;;;5.25;3.67;;;20.60;99.90;;;;;;5025342;28;20520;-78
2021/07/26 12:14:23;;;;;;;4.60;3.25;;;20.60;99.90;;;;;;5022705;28;20041;-79
2021/07/26 12:17:07;;;;;;;4.88;3.72;;;20.70;99.90;;;;;;5023438;28;20073;-78
2021/07/26 12:19:38;;;;;;;4.72;4.18;;;20.80;99.90;;;;;;5023534;28;20103;-77
2021/07/26 12:22:19;;;;;;;5.65;3.72;;;20.80;99.90;;;;;;5024998;28;20034;-79
2021/07/26 12:24:46;;;;;;;4.30;3.15;;;20.80;99.90;;;;;;5025109;28;20033;-79
2021/07/26 12:27:26;;;;;;;4.30;3.25;;;20.90;99.90;;;;;;5023178;28;20031;-79
2021/07/26 12:29:54;;;;;;;4.03;3.40;;;21.10;99.90;;;;;;5024379;28;20021;-79
2021/07/26 12:32:19;;;;;;;5.80;3.33;;;21.20;99.90;;;;;;5026282;28;20026;-78
2021/07/26 12:35:11;;;;;;;4.90;3.33;;;21.50;99.90;;;;;;5027950;28;20112;-78
2021/07/26 12:37:37;;;;;;;3.42;2.85;;;21.80;99.90;;;;;;5026088;28;20483;-78
2021/07/26 12:40:16;;;;;;;4.53;3.60;;;22.10;99.90;;;;;;5022999;28;20080;-79
2021/07/26 12:42:43;;;;;;;5.70;3.88;;;22.50;99.90;;;;;;5022480;28;20033;-78
2021/07/26 12:45:24;;;;;;;4.68;3.35;;;22.80;99.90;;;;;;5025871;28;20056;-78
2021/07/26 12:47:52;;;;;;;3.92;3.20;;;23.10;99.90;;;;;;5023836;28;20021;-78
2021/07/26 12:50:18;;;;;;;5.47;3.38;;;23.20;99.90;;;;;;5008537;28;20033;-79
2021/07/26 12:52:43;;;;;;;3.97;3.47;;;23.20;99.90;;;;;;5027462;28;20043;-78
2021/07/26 12:55:13;;;;;;;4.18;3.78;;;23.20;99.90;;;;;;5024393;28;20487;-78
2021/07/26 12:57:38;;;;;;;4.88;3.88;;;23.20;99.90;;;;;;5025894;28;20046;-78
2021/07/26 13:00:05;;;;;;;4.82;3.72;;;23.10;99.90;;;;;;5020133;28;20033;-79
2021/07/26 13:02:32;;;;;;;4.47;3.97;;;23.10;99.90;;;;;;5025095;28;20033;-79
2021/07/26 13:04:57;;;;;;;4.68;3.78;;;23.10;99.90;;;;;;5017405;28;20384;-78
2021/07/26 13:07:24;;;;;;;4.35;3.10;;;23.30;99.90;;;;;;5025278;28;20030;-78